createdAt,value
2017-08-03T00:02:03.935Z,20.70
2017-08-03T00:04:32.783Z,20.90
2017-08-03T00:07:00.891Z,20.90
2017-08-03T00:09:28.975Z,20.80
2017-08-03T00:11:57.052Z,20.90
2017-08-03T00:14:25.915Z,20.80
2017-08-03T00:16:53.995Z,20.80
2017-08-03T00:19:22.095Z,20.70
2017-08-03T00:21:50.174Z,20.60
2017-08-03T00:24:18.292Z,20.60
2017-08-03T00:26:46.467Z,20.60
2017-08-03T00:29:14.644Z,20.70
2017-08-03T00:31:42.756Z,20.80
2017-08-03T00:34:10.887Z,20.90
2017-08-03T00:36:39.059Z,20.80
2017-08-03T00:39:07.235Z,20.70
2017-08-03T00:41:35.413Z,20.70
2017-08-03T00:44:03.583Z,20.60
2017-08-03T00:46:31.759Z,20.60
2017-08-03T00:49:00.736Z,20.60
2017-08-03T00:51:28.820Z,20.40
2017-08-03T00:53:56.900Z,20.50
2017-08-03T00:56:25.071Z,20.40
2017-08-03T00:58:53.243Z,20.50
2017-08-03T01:01:21.343Z,20.40
2017-08-03T01:03:50.215Z,20.50
2017-08-03T01:06:18.295Z,20.40
2017-08-03T01:08:46.379Z,20.50
2017-08-03T01:11:15.239Z,20.70
2017-08-03T01:13:43.323Z,20.70
2017-08-03T01:16:11.417Z,20.80
2017-08-03T01:18:40.283Z,20.80
2017-08-03T01:21:08.374Z,20.80
2017-08-03T01:23:37.219Z,20.80
2017-08-03T01:26:05.324Z,20.80
2017-08-03T01:28:33.406Z,20.90
2017-08-03T01:31:01.483Z,20.80
2017-08-03T01:33:30.354Z,20.80
2017-08-03T01:35:58.430Z,20.80
2017-08-03T01:40:55.886Z,20.80
2017-08-03T01:43:24.723Z,20.80
2017-08-03T01:45:53.575Z,20.80
2017-08-03T01:48:22.066Z,20.90
2017-08-03T01:50:50.147Z,20.80
2017-08-03T01:53:18.226Z,20.90
2017-08-03T01:55:47.087Z,20.80
2017-08-03T01:58:15.558Z,20.80
2017-08-03T02:00:43.670Z,20.80
2017-08-03T02:03:12.511Z,20.80
2017-08-03T02:05:40.587Z,20.80
2017-08-03T02:08:08.690Z,20.80
2017-08-03T02:10:37.554Z,20.70
2017-08-03T02:13:05.624Z,20.70
2017-08-03T02:15:33.723Z,20.70
2017-08-03T02:18:01.818Z,20.60
2017-08-03T02:20:30.315Z,20.60
2017-08-03T02:22:58.410Z,20.60
2017-08-03T02:25:26.506Z,20.60
2017-08-03T02:27:54.591Z,20.60
2017-08-03T02:30:23.096Z,20.50
2017-08-03T02:32:51.568Z,20.60
2017-08-03T02:35:19.638Z,20.60
2017-08-03T02:37:47.748Z,20.60
2017-08-03T02:40:15.819Z,20.60
2017-08-03T02:42:43.915Z,20.60
2017-08-03T02:45:11.990Z,20.70
2017-08-03T02:47:40.082Z,20.70
2017-08-03T02:50:09.688Z,20.80
2017-08-03T02:52:37.862Z,20.70
2017-08-03T02:55:06.030Z,20.70
2017-08-03T02:57:34.102Z,20.70
2017-08-03T03:00:02.279Z,20.60
2017-08-03T03:02:30.450Z,20.50
2017-08-03T03:04:59.342Z,20.60
2017-08-03T03:07:27.439Z,20.60
2017-08-03T03:09:55.510Z,20.70
2017-08-03T03:12:23.606Z,20.70
2017-08-03T03:14:51.682Z,20.70
2017-08-03T03:17:19.787Z,20.70
2017-08-03T03:19:48.258Z,20.60
2017-08-03T03:22:16.335Z,20.60
2017-08-03T03:24:44.430Z,20.60
2017-08-03T03:27:12.505Z,20.50
2017-08-03T03:29:41.483Z,20.40
2017-08-03T03:32:09.518Z,20.40
2017-08-03T03:34:38.051Z,20.40
2017-08-03T03:37:06.227Z,20.30
2017-08-03T03:39:34.340Z,20.40
2017-08-03T03:42:03.187Z,20.40
2017-08-03T03:44:31.263Z,20.40
2017-08-03T03:46:59.396Z,20.60
2017-08-03T03:49:27.479Z,20.50
2017-08-03T03:51:55.550Z,20.50
2017-08-03T03:54:23.651Z,20.40
2017-08-03T03:56:51.755Z,20.40
2017-08-03T03:59:20.249Z,20.40
2017-08-03T04:01:49.086Z,20.40
2017-08-03T04:04:17.178Z,20.30
2017-08-03T04:06:45.275Z,20.40
2017-08-03T04:09:14.122Z,20.40
2017-08-03T04:11:42.223Z,20.50
2017-08-03T04:14:10.703Z,20.70
2017-08-03T04:16:38.798Z,20.60
2017-08-03T04:19:06.874Z,20.60
2017-08-03T04:21:35.366Z,20.60
2017-08-03T04:24:03.872Z,20.60
2017-08-03T04:26:31.947Z,20.60
2017-08-03T04:29:00.023Z,20.60
2017-08-03T04:31:28.124Z,20.70
2017-08-03T04:33:56.205Z,20.70
2017-08-03T04:36:25.071Z,20.80
2017-08-03T04:38:53.201Z,20.80
2017-08-03T04:41:21.287Z,20.90
2017-08-03T04:43:49.400Z,20.90
2017-08-03T04:46:17.470Z,20.80
2017-08-03T04:48:45.547Z,20.90
2017-08-03T04:51:14.147Z,20.90
2017-08-03T04:53:43.022Z,20.90
2017-08-03T04:56:11.099Z,21.10
2017-08-03T04:58:39.175Z,21.20
2017-08-03T05:01:07.678Z,21.20
2017-08-03T05:03:36.510Z,21.30
2017-08-03T05:06:04.618Z,21.40
2017-08-03T05:08:32.703Z,21.40
2017-08-03T05:11:01.551Z,21.50
2017-08-03T05:13:29.665Z,21.40
2017-08-03T05:15:58.510Z,21.40
2017-08-03T05:18:26.591Z,21.40
2017-08-03T05:20:54.702Z,21.40
2017-08-03T05:23:23.546Z,21.40
2017-08-03T05:25:51.726Z,21.30
2017-08-03T05:28:19.822Z,21.30
2017-08-03T05:30:47.938Z,21.40
2017-08-03T05:33:16.020Z,21.40
2017-08-03T05:35:44.485Z,21.30
2017-08-03T05:38:12.595Z,21.40
2017-08-03T05:40:40.670Z,21.40
2017-08-03T05:43:08.746Z,21.30
2017-08-03T05:45:37.246Z,21.20
2017-08-03T05:48:05.723Z,21.30
2017-08-03T05:50:33.803Z,21.30
2017-08-03T05:53:01.899Z,21.50
2017-08-03T05:55:30.008Z,21.50
2017-08-03T05:57:58.115Z,21.60
2017-08-03T06:00:26.202Z,21.60
2017-08-03T06:02:55.094Z,21.70
2017-08-03T06:05:23.172Z,21.80
2017-08-03T06:07:52.010Z,21.80
2017-08-03T06:10:20.891Z,21.60
2017-08-03T06:12:48.977Z,21.60
2017-08-03T06:15:17.050Z,21.70
2017-08-03T06:17:45.146Z,21.70
2017-08-03T06:20:13.642Z,21.80
2017-08-03T06:22:42.506Z,21.80
2017-08-03T06:25:10.587Z,21.90
2017-08-03T06:27:38.685Z,21.90
2017-08-03T06:30:07.550Z,22.10
2017-08-03T06:32:35.638Z,22.20
2017-08-03T06:35:04.525Z,22.30
2017-08-03T06:37:32.606Z,22.40
2017-08-03T06:40:01.447Z,22.40
2017-08-03T06:42:29.572Z,22.50
2017-08-03T06:44:58.423Z,22.60
2017-08-03T06:47:26.511Z,22.70
2017-08-03T06:49:54.627Z,22.70
2017-08-03T06:52:22.707Z,22.70
2017-08-03T06:54:50.829Z,22.80
2017-08-03T06:57:18.915Z,22.80
2017-08-03T06:59:47.762Z,22.80
2017-08-03T07:02:15.876Z,22.70
2017-08-03T07:04:44.725Z,22.60
2017-08-03T07:07:12.871Z,22.60
2017-08-03T07:09:40.954Z,22.60
2017-08-03T07:12:09.080Z,22.60
2017-08-03T07:14:37.935Z,22.60
2017-08-03T07:17:06.043Z,22.60
2017-08-03T07:19:34.146Z,22.70
2017-08-03T07:22:02.661Z,22.80
2017-08-03T07:24:30.775Z,22.80
2017-08-03T07:26:59.646Z,22.80
2017-08-03T07:29:28.619Z,22.90
2017-08-03T07:31:56.671Z,23.00
2017-08-03T07:34:24.754Z,22.90
2017-08-03T07:36:52.872Z,23.00
2017-08-03T07:39:20.963Z,22.90
2017-08-03T07:41:49.486Z,22.90
2017-08-03T07:44:17.570Z,23.10
2017-08-03T07:46:46.094Z,23.20
2017-08-03T07:49:14.198Z,23.20
2017-08-03T07:51:42.268Z,23.10
2017-08-03T07:54:10.375Z,23.00
2017-08-03T07:56:38.857Z,22.90
2017-08-03T07:59:07.850Z,22.70
2017-08-03T08:01:36.728Z,22.60
2017-08-03T08:04:05.284Z,22.50
2017-08-03T08:06:33.752Z,22.40
2017-08-03T08:09:01.870Z,22.40
2017-08-03T08:11:30.745Z,22.40
2017-08-03T08:13:58.851Z,22.40
2017-08-03T08:16:27.698Z,22.50
2017-08-03T08:18:55.810Z,22.30
2017-08-03T08:21:24.791Z,22.30
2017-08-03T08:23:52.875Z,22.30
2017-08-03T08:26:21.727Z,22.40
2017-08-03T08:28:49.830Z,22.40
2017-08-03T08:31:18.731Z,22.30
2017-08-03T08:33:47.591Z,22.40
2017-08-03T08:36:15.678Z,22.40
2017-08-03T08:38:43.790Z,22.40
2017-08-03T08:41:12.444Z,22.50
2017-08-03T08:43:40.571Z,22.60
2017-08-03T08:46:08.659Z,22.60
2017-08-03T08:48:36.742Z,22.80
2017-08-03T08:51:04.855Z,22.80
2017-08-03T08:53:32.965Z,22.80
2017-08-03T08:56:01.079Z,22.80
2017-08-03T08:58:29.935Z,22.80
2017-08-03T09:00:58.062Z,22.80
2017-08-03T09:03:26.150Z,22.80
2017-08-03T09:05:54.239Z,22.80
2017-08-03T09:08:22.347Z,22.90
2017-08-03T09:10:50.515Z,22.80
2017-08-03T09:13:18.599Z,22.80
2017-08-03T09:15:47.079Z,22.80
2017-08-03T09:18:15.582Z,22.90
2017-08-03T09:20:43.714Z,22.90
2017-08-03T09:23:11.798Z,22.90
2017-08-03T09:25:39.893Z,23.00
2017-08-03T09:28:08.758Z,22.90
2017-08-03T09:30:36.855Z,22.90
2017-08-03T09:33:05.739Z,23.00
2017-08-03T09:35:34.590Z,22.90
2017-08-03T09:38:02.707Z,23.00
2017-08-03T09:40:31.575Z,23.10
2017-08-03T09:42:59.687Z,23.20
2017-08-03T09:45:27.790Z,23.20
2017-08-03T09:47:58.927Z,23.30
2017-08-03T09:50:27.034Z,23.30
2017-08-03T09:52:55.126Z,23.30
2017-08-03T09:55:23.602Z,23.30
2017-08-03T09:57:51.718Z,23.40
2017-08-03T10:00:19.816Z,23.50
2017-08-03T10:02:47.898Z,23.50
2017-08-03T10:05:16.010Z,23.50
2017-08-03T10:07:44.926Z,23.50
2017-08-03T10:10:13.007Z,23.40
2017-08-03T10:12:41.090Z,23.50
2017-08-03T10:15:09.201Z,23.50
2017-08-03T10:17:37.288Z,23.50
2017-08-03T10:20:06.169Z,23.50
2017-08-03T10:22:34.246Z,23.60
2017-08-03T10:25:02.736Z,23.80
2017-08-03T10:27:31.618Z,23.90
2017-08-03T10:30:00.503Z,24.00
2017-08-03T10:32:28.653Z,24.10
2017-08-03T10:34:56.727Z,24.10
2017-08-03T10:37:24.815Z,24.00
2017-08-03T10:39:52.926Z,24.20
2017-08-03T10:42:21.014Z,24.20
2017-08-03T10:44:49.110Z,24.20
2017-08-03T10:47:17.227Z,24.20
2017-08-03T10:49:45.763Z,24.20
2017-08-03T10:52:14.596Z,24.20
2017-08-03T10:54:43.484Z,24.40
2017-08-03T10:57:12.334Z,24.40
2017-08-03T10:59:40.427Z,24.50
2017-08-03T11:02:08.539Z,24.70
2017-08-03T11:04:37.010Z,24.70
2017-08-03T11:07:05.882Z,24.70
2017-08-03T11:09:33.976Z,24.70
2017-08-03T11:12:02.843Z,24.90
2017-08-03T11:14:31.351Z,25.00
2017-08-03T11:16:59.826Z,25.10
2017-08-03T11:19:28.706Z,25.10
2017-08-03T11:21:57.574Z,25.20
2017-08-03T11:24:26.050Z,25.50
2017-08-03T11:26:54.545Z,25.70
2017-08-03T11:29:22.634Z,26.00
2017-08-03T11:31:51.498Z,26.40
2017-08-03T11:34:19.603Z,26.90
2017-08-03T11:36:48.451Z,27.30
2017-08-03T11:39:16.553Z,27.10
2017-08-03T11:41:45.032Z,27.00
2017-08-03T11:44:13.142Z,27.00
2017-08-03T11:46:41.979Z,27.40
2017-08-03T11:49:10.074Z,27.70
2017-08-03T11:51:38.143Z,27.70
2017-08-03T11:54:06.247Z,27.70
2017-08-03T11:56:34.341Z,27.60
2017-08-03T11:59:02.476Z,27.10
2017-08-03T12:01:30.927Z,27.00
2017-08-03T12:03:59.039Z,27.30
2017-08-03T12:06:27.115Z,28.00
2017-08-03T12:08:55.199Z,28.70
2017-08-03T12:11:23.307Z,29.30
2017-08-03T12:13:51.382Z,29.70
2017-08-03T12:16:19.458Z,29.80
2017-08-03T12:18:47.562Z,30.00
2017-08-03T12:21:16.440Z,30.20
2017-08-03T12:23:44.508Z,30.80
2017-08-03T12:26:12.579Z,31.00
2017-08-03T12:28:41.070Z,31.10
2017-08-03T12:31:09.942Z,31.00
2017-08-03T12:33:38.018Z,30.90
2017-08-03T12:36:06.090Z,31.20
2017-08-03T12:38:34.198Z,31.30
2017-08-03T12:41:02.273Z,32.10
2017-08-03T12:43:30.347Z,32.20
2017-08-03T12:45:58.450Z,32.20
2017-08-03T12:48:26.527Z,32.00
2017-08-03T12:50:54.627Z,32.20
2017-08-03T12:53:22.731Z,31.60
2017-08-03T12:55:50.811Z,31.70
2017-08-03T12:58:18.906Z,32.00
2017-08-03T13:00:47.006Z,32.40
2017-08-03T13:03:15.850Z,32.20
2017-08-03T13:05:44.356Z,32.40
2017-08-03T13:08:12.450Z,32.00
2017-08-03T13:10:40.567Z,31.90
2017-08-03T13:13:08.639Z,31.80
2017-08-03T13:15:36.718Z,31.80
2017-08-03T13:18:04.822Z,31.80
2017-08-03T13:20:32.894Z,31.80
2017-08-03T13:23:00.996Z,32.00
2017-08-03T13:25:29.138Z,32.20
2017-08-03T13:27:57.979Z,31.80
2017-08-03T13:30:26.818Z,32.90
2017-08-03T13:32:54.923Z,33.30
2017-08-03T13:35:23.005Z,33.10
2017-08-03T13:37:51.142Z,33.10
2017-08-03T13:40:19.218Z,32.80
2017-08-03T13:42:47.687Z,31.90
2017-08-03T13:45:15.787Z,31.80
2017-08-03T13:47:43.870Z,31.80
2017-08-03T13:50:11.979Z,31.80
2017-08-03T13:52:40.054Z,31.70
2017-08-03T13:55:08.563Z,31.60
2017-08-03T13:57:36.642Z,32.20
2017-08-03T14:00:04.739Z,32.40
2017-08-03T14:02:32.838Z,32.70
2017-08-03T14:05:00.914Z,32.50
2017-08-03T14:07:29.019Z,31.70
2017-08-03T14:09:57.090Z,31.90
2017-08-03T14:12:25.599Z,32.20
2017-08-03T14:14:53.673Z,31.70
2017-08-03T14:17:21.750Z,31.40
2017-08-03T14:19:49.871Z,30.80
2017-08-03T14:22:17.946Z,30.10
2017-08-03T14:24:46.026Z,29.80
2017-08-03T14:27:14.991Z,29.60
2017-08-03T14:29:43.079Z,29.80
2017-08-03T14:32:11.164Z,29.70
2017-08-03T14:34:39.302Z,29.80
2017-08-03T14:37:08.168Z,29.80
2017-08-03T14:39:36.238Z,29.40
2017-08-03T14:42:04.346Z,29.10
2017-08-03T14:44:32.452Z,29.90
2017-08-03T14:47:00.516Z,30.00
2017-08-03T14:49:29.373Z,29.40
2017-08-03T14:51:57.856Z,29.60
2017-08-03T14:54:26.726Z,30.10
2017-08-03T14:56:55.199Z,31.30
2017-08-03T14:59:23.670Z,31.90
2017-08-03T15:01:51.780Z,30.90
2017-08-03T15:04:19.854Z,29.90
2017-08-03T15:06:47.967Z,29.30
2017-08-03T15:09:16.439Z,29.10
2017-08-03T15:11:44.521Z,28.80
2017-08-03T15:14:12.620Z,28.70
2017-08-03T15:16:42.108Z,28.20
2017-08-03T15:19:10.599Z,28.20
2017-08-03T15:21:38.674Z,28.60
2017-08-03T15:24:06.770Z,28.50
2017-08-03T15:26:35.614Z,28.50
2017-08-03T15:29:03.715Z,28.70
2017-08-03T15:31:31.799Z,28.50
2017-08-03T15:33:59.903Z,28.30
2017-08-03T15:36:27.978Z,28.50
2017-08-03T15:38:56.061Z,28.50
2017-08-03T15:41:24.163Z,28.40
2017-08-03T15:43:52.630Z,28.50
2017-08-03T15:46:20.701Z,28.60
2017-08-03T15:48:48.798Z,28.60
2017-08-03T15:51:16.907Z,28.80
2017-08-03T15:53:45.742Z,28.50
2017-08-03T15:56:14.215Z,28.30
2017-08-03T15:58:42.714Z,28.20
2017-08-03T16:01:10.791Z,28.30
2017-08-03T16:03:38.863Z,27.90
2017-08-03T16:06:06.972Z,27.60
2017-08-03T16:08:35.810Z,27.40
2017-08-03T16:11:03.907Z,27.30
2017-08-03T16:13:32.013Z,27.20
2017-08-03T16:16:00.846Z,27.30
2017-08-03T16:18:28.919Z,27.30
2017-08-03T16:20:57.779Z,27.00
2017-08-03T16:23:25.854Z,27.00
2017-08-03T16:25:53.963Z,27.30
2017-08-03T16:28:22.033Z,27.60
2017-08-03T16:30:50.119Z,27.80
2017-08-03T16:33:18.222Z,28.40
2017-08-03T16:35:47.067Z,28.50
2017-08-03T16:38:15.549Z,28.20
2017-08-03T16:40:43.655Z,28.10
2017-08-03T16:43:12.495Z,28.20
2017-08-03T16:45:40.571Z,28.20
2017-08-03T16:48:08.666Z,28.10
2017-08-03T16:50:36.746Z,28.30
2017-08-03T16:53:04.859Z,28.10
2017-08-03T16:55:32.938Z,27.70
2017-08-03T16:58:01.010Z,27.50
2017-08-03T17:00:29.114Z,27.10
2017-08-03T17:02:57.195Z,26.80
2017-08-03T17:05:25.659Z,26.40
2017-08-03T17:07:53.766Z,26.30
2017-08-03T17:10:21.843Z,26.10
2017-08-03T17:12:49.926Z,26.00
2017-08-03T17:15:18.804Z,25.90
2017-08-03T17:17:47.275Z,25.80
2017-08-03T17:20:16.114Z,25.70
2017-08-03T17:22:44.650Z,25.80
2017-08-03T17:25:12.726Z,25.90
2017-08-03T17:27:40.812Z,25.90
2017-08-03T17:30:08.920Z,25.90
2017-08-03T17:32:36.987Z,25.80
2017-08-03T17:35:05.833Z,25.70
2017-08-03T17:37:33.926Z,25.60
2017-08-03T17:40:02.774Z,25.60
2017-08-03T17:42:30.878Z,25.40
2017-08-03T17:44:59.356Z,25.40
2017-08-03T17:47:27.423Z,25.40
2017-08-03T17:49:55.539Z,25.30
2017-08-03T17:52:23.618Z,25.30
2017-08-03T17:54:51.740Z,25.30
2017-08-03T17:57:19.805Z,25.20
2017-08-03T17:59:47.879Z,25.20
2017-08-03T18:02:15.980Z,25.10
2017-08-03T18:04:44.818Z,25.10
2017-08-03T18:07:13.688Z,25.00
2017-08-03T18:09:42.188Z,24.90
2017-08-03T18:12:10.664Z,24.90
2017-08-03T18:14:38.758Z,24.80
2017-08-03T18:17:06.848Z,24.70
2017-08-03T18:19:35.339Z,24.60
2017-08-03T18:22:04.212Z,24.60
2017-08-03T18:24:32.692Z,24.50
2017-08-03T18:27:00.807Z,24.50
2017-08-03T18:29:29.278Z,24.40
2017-08-03T18:31:57.364Z,24.40
2017-08-03T18:34:25.858Z,24.40
2017-08-03T18:36:54.698Z,24.30
2017-08-03T18:39:22.798Z,24.40
2017-08-03T18:41:51.324Z,24.40
2017-08-03T18:44:19.489Z,24.40
2017-08-03T18:46:48.324Z,24.40
2017-08-03T18:49:17.195Z,24.40
2017-08-03T18:51:45.271Z,24.30
2017-08-03T18:54:13.383Z,24.30
2017-08-03T18:56:42.217Z,24.20
2017-08-03T18:59:10.715Z,24.20
2017-08-03T19:01:38.796Z,24.10
2017-08-03T19:04:06.900Z,24.00
2017-08-03T19:06:35.367Z,24.00
2017-08-03T19:09:04.263Z,24.00
2017-08-03T19:11:33.130Z,23.90
2017-08-03T19:14:01.202Z,23.80
2017-08-03T19:16:29.311Z,23.70
2017-08-03T19:18:57.788Z,23.70
2017-08-03T19:21:26.645Z,23.60
2017-08-03T19:23:55.233Z,23.60
2017-08-03T19:26:23.320Z,23.50
2017-08-03T19:28:51.808Z,23.50
2017-08-03T19:31:19.883Z,23.50
2017-08-03T19:33:48.000Z,23.40
2017-08-03T19:36:16.070Z,23.40
2017-08-03T19:38:44.149Z,23.40
2017-08-03T19:41:12.242Z,23.40
2017-08-03T19:43:40.323Z,23.40
2017-08-03T19:46:08.434Z,23.30
2017-08-03T19:48:36.527Z,23.30
2017-08-03T19:51:04.603Z,23.20
2017-08-03T19:53:32.712Z,23.20
2017-08-03T19:56:00.803Z,23.10
2017-08-03T19:58:29.646Z,23.20
2017-08-03T20:00:58.530Z,23.10
2017-08-03T20:03:26.612Z,23.00
2017-08-03T20:05:55.989Z,23.00
2017-08-03T20:08:42.802Z,23.00
2017-08-03T20:11:15.771Z,22.90
2017-08-03T20:13:43.843Z,22.90
2017-08-03T20:16:11.949Z,22.80
2017-08-03T20:18:40.031Z,22.80
2017-08-03T20:21:08.106Z,22.70
2017-08-03T20:23:36.237Z,22.70
2017-08-03T20:26:04.330Z,22.60
2017-08-03T20:28:32.442Z,22.60
2017-08-03T20:31:00.543Z,22.60
2017-08-03T20:33:29.015Z,22.60
2017-08-03T20:35:57.902Z,22.50
2017-08-03T20:38:26.759Z,22.50
2017-08-03T20:40:54.834Z,22.40
2017-08-03T20:43:23.703Z,22.50
2017-08-03T20:45:51.777Z,22.50
2017-08-03T20:51:18.030Z,22.40
2017-08-03T20:53:46.140Z,22.30
2017-08-03T20:56:14.607Z,22.30
2017-08-03T20:58:42.706Z,22.30
2017-08-03T21:01:11.556Z,22.30
2017-08-03T21:03:39.671Z,22.40
2017-08-03T21:06:08.523Z,22.40
2017-08-03T21:08:36.662Z,22.30
2017-08-03T21:11:04.763Z,22.30
2017-08-03T21:13:32.866Z,22.30
2017-08-03T21:16:01.358Z,22.30
2017-08-03T21:18:30.203Z,22.30
2017-08-03T21:20:58.318Z,22.30
2017-08-03T21:23:26.420Z,22.10
2017-08-03T21:25:54.518Z,22.00
2017-08-03T21:28:22.627Z,21.90
2017-08-03T21:30:50.712Z,21.80
2017-08-03T21:33:19.578Z,21.60
2017-08-03T21:35:47.663Z,21.60
2017-08-03T21:38:15.743Z,21.50
2017-08-03T21:40:44.627Z,21.50
2017-08-03T21:43:13.480Z,21.50
2017-08-03T21:45:41.554Z,21.50
2017-08-03T21:48:09.682Z,21.40
2017-08-03T21:50:37.809Z,21.30
2017-08-03T21:53:05.906Z,21.20
2017-08-03T21:55:33.983Z,21.20
2017-08-03T21:58:02.855Z,21.10
2017-08-03T22:00:42.694Z,21.10
2017-08-03T22:03:10.794Z,21.00
2017-08-03T22:05:39.644Z,20.90
2017-08-03T22:08:07.739Z,20.90
2017-08-03T22:10:35.848Z,20.80
2017-08-03T22:13:03.926Z,20.80
2017-08-03T22:15:32.440Z,20.80
2017-08-03T22:18:00.563Z,20.80
2017-08-03T22:20:29.436Z,20.80
2017-08-03T22:22:57.524Z,20.80
2017-08-03T22:25:26.401Z,20.80
2017-08-03T22:27:54.880Z,20.80
2017-08-03T22:30:22.954Z,20.80
2017-08-03T22:32:51.090Z,20.80
2017-08-03T22:35:19.163Z,20.70
2017-08-03T22:37:48.034Z,20.70
2017-08-03T22:40:16.117Z,20.70
2017-08-03T22:42:44.196Z,20.70
2017-08-03T22:45:12.295Z,20.70
2017-08-03T22:47:40.371Z,20.60
2017-08-03T22:50:08.466Z,20.60
2017-08-03T22:52:36.979Z,20.50
2017-08-03T22:55:05.822Z,20.50
2017-08-03T22:57:33.899Z,20.40
2017-08-03T23:00:02.019Z,20.40
2017-08-03T23:02:31.245Z,20.30
2017-08-03T23:04:59.331Z,20.20
2017-08-03T23:07:27.829Z,20.20
2017-08-03T23:09:56.319Z,20.20
2017-08-03T23:12:24.808Z,20.10
2017-08-03T23:17:22.263Z,20.00
2017-08-03T23:19:51.107Z,20.00
2017-08-03T23:22:20.728Z,20.00
2017-08-03T23:24:48.827Z,19.90
2017-08-03T23:27:16.929Z,19.90
2017-08-03T23:29:45.792Z,19.80
2017-08-03T23:32:13.871Z,19.80
2017-08-03T23:34:42.736Z,19.70
2017-08-03T23:37:10.856Z,19.70
2017-08-03T23:39:39.694Z,19.70
2017-08-03T23:42:07.809Z,19.70
2017-08-03T23:44:35.862Z,19.70
2017-08-03T23:47:03.987Z,19.70
2017-08-03T23:49:32.459Z,19.70
2017-08-03T23:52:00.536Z,19.70
2017-08-03T23:54:28.644Z,19.60
2017-08-03T23:56:57.112Z,19.50
2017-08-03T23:59:25.609Z,19.50
